sensor_id;sensor_type;location;lat;lon;timestamp;P1;durP1;ratioP1;P2;durP2;ratioP2
45728;SDS011;31439;53.512;10.206;2023-03-01T00:00:12;10.20;;;6.78;;
45728;SDS011;31439;53.512;10.206;2023-03-01T00:02:38;13.15;;;6.40;;
45728;SDS011;31439;53.512;10.206;2023-03-01T00:05:04;12.57;;;7.95;;
45728;SDS011;31439;53.512;10.206;2023-03-01T00:07:36;12.65;;;7.40;;
45728;SDS011;31439;53.512;10.206;2023-03-01T00:10:01;15.07;;;8.50;;
45728;SDS011;31439;53.512;10.206;2023-03-01T00:12:27;16.58;;;9.68;;
45728;SDS011;31439;53.512;10.206;2023-03-01T00:14:53;31.20;;;13.95;;
45728;SDS011;31439;53.512;10.206;2023-03-01T00:17:18;24.02;;;12.07;;
45728;SDS011;31439;53.512;10.206;2023-03-01T00:19:44;21.92;;;10.50;;
45728;SDS011;31439;53.512;10.206;2023-03-01T00:22:09;23.45;;;11.43;;
45728;SDS011;31439;53.512;10.206;2023-03-01T00:24:35;22.80;;;11.27;;
45728;SDS011;31439;53.512;10.206;2023-03-01T00:27:01;26.85;;;13.38;;
45728;SDS011;31439;53.512;10.206;2023-03-01T00:29:26;28.98;;;14.48;;
45728;SDS011;31439;53.512;10.206;2023-03-01T00:31:52;25.98;;;13.70;;
45728;SDS011;31439;53.512;10.206;2023-03-01T00:34:18;23.60;;;11.48;;
45728;SDS011;31439;53.512;10.206;2023-03-01T00:36:43;18.20;;;10.18;;
45728;SDS011;31439;53.512;10.206;2023-03-01T00:39:11;23.92;;;11.68;;
45728;SDS011;31439;53.512;10.206;2023-03-01T00:41:38;20.00;;;10.57;;
45728;SDS011;31439;53.512;10.206;2023-03-01T00:44:05;16.52;;;9.65;;
45728;SDS011;31439;53.512;10.206;2023-03-01T00:46:30;15.82;;;10.02;;
45728;SDS011;31439;53.512;10.206;2023-03-01T00:48:56;15.63;;;9.50;;
45728;SDS011;31439;53.512;10.206;2023-03-01T00:51:23;18.55;;;9.20;;
45728;SDS011;31439;53.512;10.206;2023-03-01T00:53:51;14.38;;;9.10;;
45728;SDS011;31439;53.512;10.206;2023-03-01T00:56:18;18.13;;;9.35;;
45728;SDS011;31439;53.512;10.206;2023-03-01T00:58:44;18.02;;;10.10;;
45728;SDS011;31439;53.512;10.206;2023-03-01T01:03:48;15.98;;;10.10;;
45728;SDS011;31439;53.512;10.206;2023-03-01T01:06:26;14.52;;;9.13;;
45728;SDS011;31439;53.512;10.206;2023-03-01T01:08:55;16.27;;;9.52;;
45728;SDS011;31439;53.512;10.206;2023-03-01T01:11:22;17.75;;;10.43;;
45728;SDS011;31439;53.512;10.206;2023-03-01T01:13:49;16.92;;;9.63;;
45728;SDS011;31439;53.512;10.206;2023-03-01T01:16:15;14.30;;;9.43;;
45728;SDS011;31439;53.512;10.206;2023-03-01T01:18:42;15.77;;;9.70;;
45728;SDS011;31439;53.512;10.206;2023-03-01T01:21:12;17.35;;;9.95;;
45728;SDS011;31439;53.512;10.206;2023-03-01T01:23:40;15.95;;;9.60;;
45728;SDS011;31439;53.512;10.206;2023-03-01T01:26:07;14.63;;;9.30;;
45728;SDS011;31439;53.512;10.206;2023-03-01T01:28:35;18.05;;;9.75;;
45728;SDS011;31439;53.512;10.206;2023-03-01T01:31:01;18.35;;;10.02;;
45728;SDS011;31439;53.512;10.206;2023-03-01T01:33:28;17.95;;;10.52;;
45728;SDS011;31439;53.512;10.206;2023-03-01T01:35:53;15.07;;;10.27;;
45728;SDS011;31439;53.512;10.206;2023-03-01T01:38:19;17.05;;;10.48;;
45728;SDS011;31439;53.512;10.206;2023-03-01T01:40:46;17.17;;;10.00;;
45728;SDS011;31439;53.512;10.206;2023-03-01T01:43:20;15.75;;;9.60;;
45728;SDS011;31439;53.512;10.206;2023-03-01T01:45:54;14.93;;;9.77;;
45728;SDS011;31439;53.512;10.206;2023-03-01T01:48:32;18.85;;;9.80;;
45728;SDS011;31439;53.512;10.206;2023-03-01T01:51:05;16.75;;;9.90;;
45728;SDS011;31439;53.512;10.206;2023-03-01T01:53:34;19.70;;;10.45;;
45728;SDS011;31439;53.512;10.206;2023-03-01T01:56:01;18.30;;;10.55;;
45728;SDS011;31439;53.512;10.206;2023-03-01T01:58:28;15.35;;;10.00;;
45728;SDS011;31439;53.512;10.206;2023-03-01T02:00:55;16.40;;;9.70;;
45728;SDS011;31439;53.512;10.206;2023-03-01T02:03:25;15.50;;;9.43;;
45728;SDS011;31439;53.512;10.206;2023-03-01T02:08:27;18.55;;;10.50;;
45728;SDS011;31439;53.512;10.206;2023-03-01T02:10:55;15.55;;;9.75;;
45728;SDS011;31439;53.512;10.206;2023-03-01T02:13:22;17.42;;;9.73;;
45728;SDS011;31439;53.512;10.206;2023-03-01T02:15:48;18.23;;;9.80;;
45728;SDS011;31439;53.512;10.206;2023-03-01T02:18:16;15.88;;;9.40;;
45728;SDS011;31439;53.512;10.206;2023-03-01T02:23:10;19.48;;;9.45;;
45728;SDS011;31439;53.512;10.206;2023-03-01T02:30:47;16.20;;;9.30;;
45728;SDS011;31439;53.512;10.206;2023-03-01T02:33:33;15.43;;;9.25;;
45728;SDS011;31439;53.512;10.206;2023-03-01T02:36:01;15.00;;;8.85;;
45728;SDS011;31439;53.512;10.206;2023-03-01T02:38:29;16.10;;;8.98;;
45728;SDS011;31439;53.512;10.206;2023-03-01T02:40:56;19.63;;;10.20;;
45728;SDS011;31439;53.512;10.206;2023-03-01T02:43:23;15.77;;;9.32;;
45728;SDS011;31439;53.512;10.206;2023-03-01T02:45:56;16.25;;;9.40;;
45728;SDS011;31439;53.512;10.206;2023-03-01T02:48:23;17.67;;;9.13;;
45728;SDS011;31439;53.512;10.206;2023-03-01T02:50:52;15.27;;;9.02;;
45728;SDS011;31439;53.512;10.206;2023-03-01T02:53:25;17.33;;;9.05;;
45728;SDS011;31439;53.512;10.206;2023-03-01T02:56:00;14.82;;;9.30;;
45728;SDS011;31439;53.512;10.206;2023-03-01T02:58:26;16.05;;;9.00;;
45728;SDS011;31439;53.512;10.206;2023-03-01T03:00:52;15.80;;;9.15;;
45728;SDS011;31439;53.512;10.206;2023-03-01T03:03:19;14.52;;;9.32;;
45728;SDS011;31439;53.512;10.206;2023-03-01T03:05:46;16.40;;;8.48;;
45728;SDS011;31439;53.512;10.206;2023-03-01T03:08:12;17.85;;;8.75;;
45728;SDS011;31439;53.512;10.206;2023-03-01T03:10:39;14.13;;;8.45;;
45728;SDS011;31439;53.512;10.206;2023-03-01T03:13:07;15.00;;;8.10;;
45728;SDS011;31439;53.512;10.206;2023-03-01T03:15:37;12.23;;;7.32;;
45728;SDS011;31439;53.512;10.206;2023-03-01T03:18:05;14.13;;;7.47;;
45728;SDS011;31439;53.512;10.206;2023-03-01T03:20:32;15.88;;;7.47;;
45728;SDS011;31439;53.512;10.206;2023-03-01T03:22:58;11.60;;;7.60;;
45728;SDS011;31439;53.512;10.206;2023-03-01T03:25:25;12.23;;;7.45;;
45728;SDS011;31439;53.512;10.206;2023-03-01T03:27:51;11.05;;;6.80;;
45728;SDS011;31439;53.512;10.206;2023-03-01T03:30:21;11.05;;;6.50;;
45728;SDS011;31439;53.512;10.206;2023-03-01T03:32:49;11.75;;;7.00;;
45728;SDS011;31439;53.512;10.206;2023-03-01T03:35:24;13.60;;;6.22;;
45728;SDS011;31439;53.512;10.206;2023-03-01T03:37:58;12.85;;;6.55;;
45728;SDS011;31439;53.512;10.206;2023-03-01T03:40:41;13.52;;;6.55;;
45728;SDS011;31439;53.512;10.206;2023-03-01T03:43:18;11.18;;;6.10;;
45728;SDS011;31439;53.512;10.206;2023-03-01T03:45:46;9.55;;;6.38;;
45728;SDS011;31439;53.512;10.206;2023-03-01T03:48:13;13.55;;;6.68;;
45728;SDS011;31439;53.512;10.206;2023-03-01T03:50:39;11.90;;;6.30;;
45728;SDS011;31439;53.512;10.206;2023-03-01T03:53:07;11.63;;;6.28;;
45728;SDS011;31439;53.512;10.206;2023-03-01T03:55:34;11.05;;;6.35;;
45728;SDS011;31439;53.512;10.206;2023-03-01T03:58:01;12.05;;;6.55;;
45728;SDS011;31439;53.512;10.206;2023-03-01T04:00:31;10.05;;;6.47;;
45728;SDS011;31439;53.512;10.206;2023-03-01T04:02:59;11.70;;;6.88;;
45728;SDS011;31439;53.512;10.206;2023-03-01T04:05:25;12.48;;;6.55;;
45728;SDS011;31439;53.512;10.206;2023-03-01T04:07:52;12.15;;;6.85;;
45728;SDS011;31439;53.512;10.206;2023-03-01T04:10:26;11.95;;;7.72;;
45728;SDS011;31439;53.512;10.206;2023-03-01T04:12:55;14.05;;;8.18;;
45728;SDS011;31439;53.512;10.206;2023-03-01T04:15:22;13.20;;;7.93;;
45728;SDS011;31439;53.512;10.206;2023-03-01T04:17:49;11.80;;;7.43;;
45728;SDS011;31439;53.512;10.206;2023-03-01T04:20:18;13.60;;;7.13;;
45728;SDS011;31439;53.512;10.206;2023-03-01T04:22:50;11.90;;;6.80;;
45728;SDS011;31439;53.512;10.206;2023-03-01T04:25:17;11.55;;;7.18;;
45728;SDS011;31439;53.512;10.206;2023-03-01T04:27:43;10.73;;;7.43;;
45728;SDS011;31439;53.512;10.206;2023-03-01T04:30:09;9.63;;;6.03;;
45728;SDS011;31439;53.512;10.206;2023-03-01T04:32:35;13.30;;;6.20;;
45728;SDS011;31439;53.512;10.206;2023-03-01T04:35:01;11.82;;;6.20;;
45728;SDS011;31439;53.512;10.206;2023-03-01T04:37:26;10.88;;;6.47;;
45728;SDS011;31439;53.512;10.206;2023-03-01T04:39:52;11.73;;;6.35;;
45728;SDS011;31439;53.512;10.206;2023-03-01T04:42:18;12.82;;;6.70;;
45728;SDS011;31439;53.512;10.206;2023-03-01T04:44:44;10.95;;;6.38;;
45728;SDS011;31439;53.512;10.206;2023-03-01T04:47:10;12.85;;;6.03;;
45728;SDS011;31439;53.512;10.206;2023-03-01T04:49:37;10.73;;;6.20;;
45728;SDS011;31439;53.512;10.206;2023-03-01T04:52:02;10.63;;;6.03;;
45728;SDS011;31439;53.512;10.206;2023-03-01T04:54:32;11.15;;;6.38;;
45728;SDS011;31439;53.512;10.206;2023-03-01T04:56:59;15.75;;;6.53;;
45728;SDS011;31439;53.512;10.206;2023-03-01T04:59:25;11.63;;;7.05;;
45728;SDS011;31439;53.512;10.206;2023-03-01T05:01:51;12.55;;;6.38;;
45728;SDS011;31439;53.512;10.206;2023-03-01T05:04:20;10.15;;;5.47;;
45728;SDS011;31439;53.512;10.206;2023-03-01T05:06:47;10.00;;;4.80;;
45728;SDS011;31439;53.512;10.206;2023-03-01T05:09:12;14.73;;;5.50;;
45728;SDS011;31439;53.512;10.206;2023-03-01T05:11:38;10.38;;;5.78;;
45728;SDS011;31439;53.512;10.206;2023-03-01T05:14:04;9.93;;;5.90;;
45728;SDS011;31439;53.512;10.206;2023-03-01T05:16:31;10.85;;;5.78;;
45728;SDS011;31439;53.512;10.206;2023-03-01T05:18:57;12.43;;;5.93;;
45728;SDS011;31439;53.512;10.206;2023-03-01T05:21:23;12.00;;;5.70;;
45728;SDS011;31439;53.512;10.206;2023-03-01T05:23:49;8.50;;;5.35;;
45728;SDS011;31439;53.512;10.206;2023-03-01T05:26:15;16.00;;;7.78;;
45728;SDS011;31439;53.512;10.206;2023-03-01T05:28:42;13.05;;;5.63;;
45728;SDS011;31439;53.512;10.206;2023-03-01T05:31:08;11.05;;;5.90;;
45728;SDS011;31439;53.512;10.206;2023-03-01T05:33:37;10.32;;;6.20;;
45728;SDS011;31439;53.512;10.206;2023-03-01T05:36:05;14.02;;;5.90;;
45728;SDS011;31439;53.512;10.206;2023-03-01T05:38:35;9.80;;;5.55;;
45728;SDS011;31439;53.512;10.206;2023-03-01T05:41:01;11.80;;;5.65;;
45728;SDS011;31439;53.512;10.206;2023-03-01T05:43:30;12.48;;;5.80;;
45728;SDS011;31439;53.512;10.206;2023-03-01T05:45:59;8.43;;;5.65;;
45728;SDS011;31439;53.512;10.206;2023-03-01T05:48:24;11.80;;;5.75;;
45728;SDS011;31439;53.512;10.206;2023-03-01T05:50:51;12.02;;;5.80;;
45728;SDS011;31439;53.512;10.206;2023-03-01T05:53:17;18.98;;;8.88;;
45728;SDS011;31439;53.512;10.206;2023-03-01T05:55:46;16.95;;;8.00;;
45728;SDS011;31439;53.512;10.206;2023-03-01T05:58:21;14.25;;;6.35;;
45728;SDS011;31439;53.512;10.206;2023-03-01T06:00:47;13.75;;;5.55;;
45728;SDS011;31439;53.512;10.206;2023-03-01T06:03:14;14.10;;;6.03;;
45728;SDS011;31439;53.512;10.206;2023-03-01T06:05:41;15.15;;;7.03;;
45728;SDS011;31439;53.512;10.206;2023-03-01T06:08:08;14.75;;;6.38;;
45728;SDS011;31439;53.512;10.206;2023-03-01T06:10:35;9.77;;;5.82;;
45728;SDS011;31439;53.512;10.206;2023-03-01T06:13:01;11.38;;;6.05;;
45728;SDS011;31439;53.512;10.206;2023-03-01T06:15:27;11.43;;;5.72;;
45728;SDS011;31439;53.512;10.206;2023-03-01T06:17:53;15.52;;;7.00;;
45728;SDS011;31439;53.512;10.206;2023-03-01T06:20:23;11.27;;;6.18;;
45728;SDS011;31439;53.512;10.206;2023-03-01T06:22:51;10.45;;;5.97;;
45728;SDS011;31439;53.512;10.206;2023-03-01T06:25:18;11.43;;;6.43;;
45728;SDS011;31439;53.512;10.206;2023-03-01T06:27:46;13.60;;;7.00;;
45728;SDS011;31439;53.512;10.206;2023-03-01T06:30:14;13.10;;;6.60;;
45728;SDS011;31439;53.512;10.206;2023-03-01T06:32:41;14.70;;;7.10;;
45728;SDS011;31439;53.512;10.206;2023-03-01T06:35:07;14.57;;;7.13;;
45728;SDS011;31439;53.512;10.206;2023-03-01T06:37:37;14.13;;;7.30;;
45728;SDS011;31439;53.512;10.206;2023-03-01T06:40:03;11.48;;;7.07;;
45728;SDS011;31439;53.512;10.206;2023-03-01T06:42:33;11.80;;;6.60;;
45728;SDS011;31439;53.512;10.206;2023-03-01T06:45:03;11.57;;;6.88;;
45728;SDS011;31439;53.512;10.206;2023-03-01T06:47:31;14.38;;;7.40;;
45728;SDS011;31439;53.512;10.206;2023-03-01T06:49:58;11.95;;;6.90;;
45728;SDS011;31439;53.512;10.206;2023-03-01T06:52:27;17.58;;;6.88;;
45728;SDS011;31439;53.512;10.206;2023-03-01T06:54:53;13.05;;;6.72;;
45728;SDS011;31439;53.512;10.206;2023-03-01T06:57:19;13.90;;;7.20;;
45728;SDS011;31439;53.512;10.206;2023-03-01T06:59:46;15.18;;;7.45;;
45728;SDS011;31439;53.512;10.206;2023-03-01T07:02:12;16.45;;;8.13;;
45728;SDS011;31439;53.512;10.206;2023-03-01T07:04:47;14.38;;;7.65;;
45728;SDS011;31439;53.512;10.206;2023-03-01T07:07:14;14.05;;;6.95;;
45728;SDS011;31439;53.512;10.206;2023-03-01T07:09:40;13.20;;;6.55;;
45728;SDS011;31439;53.512;10.206;2023-03-01T07:12:05;14.75;;;7.00;;
45728;SDS011;31439;53.512;10.206;2023-03-01T07:14:31;11.88;;;6.68;;
45728;SDS011;31439;53.512;10.206;2023-03-01T07:16:57;14.02;;;6.30;;
45728;SDS011;31439;53.512;10.206;2023-03-01T07:19:22;11.05;;;6.63;;
45728;SDS011;31439;53.512;10.206;2023-03-01T07:21:48;13.05;;;6.78;;
45728;SDS011;31439;53.512;10.206;2023-03-01T07:24:14;16.25;;;6.57;;
45728;SDS011;31439;53.512;10.206;2023-03-01T07:26:39;11.50;;;6.28;;
45728;SDS011;31439;53.512;10.206;2023-03-01T07:29:06;11.15;;;6.22;;
45728;SDS011;31439;53.512;10.206;2023-03-01T07:31:33;12.68;;;6.50;;
45728;SDS011;31439;53.512;10.206;2023-03-01T07:33:59;12.50;;;7.10;;
45728;SDS011;31439;53.512;10.206;2023-03-01T07:36:25;13.23;;;6.32;;
45728;SDS011;31439;53.512;10.206;2023-03-01T07:38:51;12.98;;;5.97;;
45728;SDS011;31439;53.512;10.206;2023-03-01T07:41:17;14.95;;;6.95;;
45728;SDS011;31439;53.512;10.206;2023-03-01T07:43:42;17.05;;;7.07;;
45728;SDS011;31439;53.512;10.206;2023-03-01T07:46:08;15.80;;;6.97;;
45728;SDS011;31439;53.512;10.206;2023-03-01T07:48:34;11.30;;;6.35;;
45728;SDS011;31439;53.512;10.206;2023-03-01T07:51:01;12.57;;;6.60;;
45728;SDS011;31439;53.512;10.206;2023-03-01T07:53:28;17.83;;;6.78;;
45728;SDS011;31439;53.512;10.206;2023-03-01T07:58:27;15.80;;;7.03;;
45728;SDS011;31439;53.512;10.206;2023-03-01T08:00:53;14.32;;;7.18;;
45728;SDS011;31439;53.512;10.206;2023-03-01T08:03:18;17.50;;;7.57;;
45728;SDS011;31439;53.512;10.206;2023-03-01T08:05:44;18.23;;;8.38;;
45728;SDS011;31439;53.512;10.206;2023-03-01T08:08:09;17.65;;;7.25;;
45728;SDS011;31439;53.512;10.206;2023-03-01T08:10:35;16.85;;;7.70;;
45728;SDS011;31439;53.512;10.206;2023-03-01T08:13:01;14.77;;;8.05;;
45728;SDS011;31439;53.512;10.206;2023-03-01T08:15:27;15.95;;;7.93;;
45728;SDS011;31439;53.512;10.206;2023-03-01T08:17:52;18.98;;;8.00;;
45728;SDS011;31439;53.512;10.206;2023-03-01T08:20:18;16.38;;;8.13;;
45728;SDS011;31439;53.512;10.206;2023-03-01T08:22:44;19.08;;;7.90;;
45728;SDS011;31439;53.512;10.206;2023-03-01T08:25:09;18.67;;;7.88;;
45728;SDS011;31439;53.512;10.206;2023-03-01T08:27:35;14.35;;;7.60;;
45728;SDS011;31439;53.512;10.206;2023-03-01T08:30:00;14.27;;;7.78;;
45728;SDS011;31439;53.512;10.206;2023-03-01T08:32:26;13.43;;;7.20;;
45728;SDS011;31439;53.512;10.206;2023-03-01T08:34:52;16.08;;;7.95;;
45728;SDS011;31439;53.512;10.206;2023-03-01T08:37:17;19.88;;;7.47;;
45728;SDS011;31439;53.512;10.206;2023-03-01T08:39:43;14.75;;;7.75;;
45728;SDS011;31439;53.512;10.206;2023-03-01T08:42:08;21.85;;;8.63;;
45728;SDS011;31439;53.512;10.206;2023-03-01T08:44:34;20.77;;;8.20;;
45728;SDS011;31439;53.512;10.206;2023-03-01T08:47:00;15.45;;;8.63;;
45728;SDS011;31439;53.512;10.206;2023-03-01T08:49:27;17.63;;;8.25;;
45728;SDS011;31439;53.512;10.206;2023-03-01T08:51:53;16.52;;;8.02;;
45728;SDS011;31439;53.512;10.206;2023-03-01T08:54:20;13.27;;;7.88;;
45728;SDS011;31439;53.512;10.206;2023-03-01T08:56:46;19.75;;;8.75;;
45728;SDS011;31439;53.512;10.206;2023-03-01T08:59:14;18.75;;;8.68;;
45728;SDS011;31439;53.512;10.206;2023-03-01T09:01:40;11.82;;;7.78;;
45728;SDS011;31439;53.512;10.206;2023-03-01T09:04:09;18.60;;;9.20;;
45728;SDS011;31439;53.512;10.206;2023-03-01T09:06:36;13.20;;;8.30;;
45728;SDS011;31439;53.512;10.206;2023-03-01T09:09:03;15.88;;;8.23;;
45728;SDS011;31439;53.512;10.206;2023-03-01T09:11:29;14.02;;;8.55;;
45728;SDS011;31439;53.512;10.206;2023-03-01T09:13:55;18.33;;;9.43;;
45728;SDS011;31439;53.512;10.206;2023-03-01T09:16:21;17.58;;;9.07;;
45728;SDS011;31439;53.512;10.206;2023-03-01T09:18:54;15.05;;;8.65;;
45728;SDS011;31439;53.512;10.206;2023-03-01T09:21:21;20.40;;;9.07;;
45728;SDS011;31439;53.512;10.206;2023-03-01T09:23:48;17.23;;;9.80;;
45728;SDS011;31439;53.512;10.206;2023-03-01T09:26:21;22.02;;;10.52;;
45728;SDS011;31439;53.512;10.206;2023-03-01T09:28:51;20.63;;;9.80;;
45728;SDS011;31439;53.512;10.206;2023-03-01T09:31:20;20.63;;;10.18;;
45728;SDS011;31439;53.512;10.206;2023-03-01T09:33:47;18.27;;;12.35;;
45728;SDS011;31439;53.512;10.206;2023-03-01T09:36:15;18.48;;;11.82;;
45728;SDS011;31439;53.512;10.206;2023-03-01T09:38:43;23.90;;;12.20;;
45728;SDS011;31439;53.512;10.206;2023-03-01T09:41:10;21.60;;;11.77;;
45728;SDS011;31439;53.512;10.206;2023-03-01T09:43:48;18.98;;;11.55;;
45728;SDS011;31439;53.512;10.206;2023-03-01T09:46:19;18.63;;;11.27;;
45728;SDS011;31439;53.512;10.206;2023-03-01T09:48:52;22.58;;;11.85;;
45728;SDS011;31439;53.512;10.206;2023-03-01T09:51:35;18.48;;;11.75;;
45728;SDS011;31439;53.512;10.206;2023-03-01T09:54:04;18.17;;;11.70;;
45728;SDS011;31439;53.512;10.206;2023-03-01T10:02:49;17.90;;;10.52;;
45728;SDS011;31439;53.512;10.206;2023-03-01T10:07:59;20.63;;;10.98;;
45728;SDS011;31439;53.512;10.206;2023-03-01T10:10:36;16.30;;;10.60;;
45728;SDS011;31439;53.512;10.206;2023-03-01T10:13:15;17.95;;;10.40;;
45728;SDS011;31439;53.512;10.206;2023-03-01T10:15:55;14.27;;;9.95;;
45728;SDS011;31439;53.512;10.206;2023-03-01T10:18:26;20.08;;;12.02;;
45728;SDS011;31439;53.512;10.206;2023-03-01T10:20:56;14.70;;;10.20;;
45728;SDS011;31439;53.512;10.206;2023-03-01T10:23:25;16.25;;;10.80;;
45728;SDS011;31439;53.512;10.206;2023-03-01T10:31:15;13.73;;;9.48;;
45728;SDS011;31439;53.512;10.206;2023-03-01T10:33:47;14.07;;;9.38;;
45728;SDS011;31439;53.512;10.206;2023-03-01T10:36:16;16.52;;;10.80;;
45728;SDS011;31439;53.512;10.206;2023-03-01T10:38:53;17.27;;;11.15;;
45728;SDS011;31439;53.512;10.206;2023-03-01T10:41:22;22.92;;;13.20;;
45728;SDS011;31439;53.512;10.206;2023-03-01T10:46:27;29.25;;;18.02;;
45728;SDS011;31439;53.512;10.206;2023-03-01T10:51:39;18.23;;;11.15;;
45728;SDS011;31439;53.512;10.206;2023-03-01T10:54:06;16.15;;;10.43;;
45728;SDS011;31439;53.512;10.206;2023-03-01T10:57:03;14.75;;;9.52;;
45728;SDS011;31439;53.512;10.206;2023-03-01T10:59:31;17.35;;;9.98;;
45728;SDS011;31439;53.512;10.206;2023-03-01T11:04:27;18.27;;;10.70;;
45728;SDS011;31439;53.512;10.206;2023-03-01T11:06:59;15.55;;;9.90;;
45728;SDS011;31439;53.512;10.206;2023-03-01T11:09:26;18.38;;;10.40;;
45728;SDS011;31439;53.512;10.206;2023-03-01T11:12:02;19.80;;;12.95;;
45728;SDS011;31439;53.512;10.206;2023-03-01T11:14:37;15.25;;;10.10;;
45728;SDS011;31439;53.512;10.206;2023-03-01T11:17:11;14.15;;;9.70;;
45728;SDS011;31439;53.512;10.206;2023-03-01T11:19:38;15.50;;;9.95;;
45728;SDS011;31439;53.512;10.206;2023-03-01T11:27:21;13.98;;;8.63;;
45728;SDS011;31439;53.512;10.206;2023-03-01T11:32:38;14.40;;;9.25;;
45728;SDS011;31439;53.512;10.206;2023-03-01T11:35:10;15.93;;;8.90;;
45728;SDS011;31439;53.512;10.206;2023-03-01T11:43:19;14.23;;;8.75;;
45728;SDS011;31439;53.512;10.206;2023-03-01T12:10:48;11.35;;;8.20;;
45728;SDS011;31439;53.512;10.206;2023-03-01T12:23:00;13.30;;;8.32;;
45728;SDS011;31439;53.512;10.206;2023-03-01T12:32:28;13.20;;;8.65;;
45728;SDS011;31439;53.512;10.206;2023-03-01T12:35:11;11.52;;;7.78;;
45728;SDS011;31439;53.512;10.206;2023-03-01T12:46:17;14.88;;;10.00;;
45728;SDS011;31439;53.512;10.206;2023-03-01T12:51:30;13.48;;;9.27;;
45728;SDS011;31439;53.512;10.206;2023-03-01T12:53:58;15.02;;;8.90;;
45728;SDS011;31439;53.512;10.206;2023-03-01T12:56:28;13.63;;;8.65;;
45728;SDS011;31439;53.512;10.206;2023-03-01T13:04:29;14.88;;;7.43;;
45728;SDS011;31439;53.512;10.206;2023-03-01T13:09:59;13.60;;;9.20;;
45728;SDS011;31439;53.512;10.206;2023-03-01T13:12:43;13.32;;;9.20;;
45728;SDS011;31439;53.512;10.206;2023-03-01T13:17:48;10.45;;;6.57;;
45728;SDS011;31439;53.512;10.206;2023-03-01T13:20:14;10.15;;;6.80;;
45728;SDS011;31439;53.512;10.206;2023-03-01T13:22:46;10.63;;;6.63;;
45728;SDS011;31439;53.512;10.206;2023-03-01T13:27:43;8.18;;;5.45;;
45728;SDS011;31439;53.512;10.206;2023-03-01T13:35:53;7.57;;;5.18;;
45728;SDS011;31439;53.512;10.206;2023-03-01T13:41:15;9.73;;;5.28;;
45728;SDS011;31439;53.512;10.206;2023-03-01T13:44:01;7.25;;;4.97;;
45728;SDS011;31439;53.512;10.206;2023-03-01T13:46:45;8.95;;;5.35;;
45728;SDS011;31439;53.512;10.206;2023-03-01T13:49:13;7.10;;;4.93;;
45728;SDS011;31439;53.512;10.206;2023-03-01T13:51:41;6.60;;;4.82;;
45728;SDS011;31439;53.512;10.206;2023-03-01T13:54:11;8.68;;;4.53;;
45728;SDS011;31439;53.512;10.206;2023-03-01T13:56:38;7.47;;;5.03;;
45728;SDS011;31439;53.512;10.206;2023-03-01T13:59:06;9.40;;;5.55;;
45728;SDS011;31439;53.512;10.206;2023-03-01T14:01:42;6.97;;;4.90;;
45728;SDS011;31439;53.512;10.206;2023-03-01T14:07:12;8.73;;;5.63;;
45728;SDS011;31439;53.512;10.206;2023-03-01T14:09:50;8.60;;;5.75;;
45728;SDS011;31439;53.512;10.206;2023-03-01T14:12:23;8.75;;;5.70;;
45728;SDS011;31439;53.512;10.206;2023-03-01T14:15:06;10.63;;;5.07;;
45728;SDS011;31439;53.512;10.206;2023-03-01T14:17:57;7.38;;;4.95;;
45728;SDS011;31439;53.512;10.206;2023-03-01T14:20:30;8.25;;;4.70;;
45728;SDS011;31439;53.512;10.206;2023-03-01T14:23:21;8.30;;;5.00;;
45728;SDS011;31439;53.512;10.206;2023-03-01T14:25:56;7.65;;;5.05;;
45728;SDS011;31439;53.512;10.206;2023-03-01T14:28:24;7.53;;;4.90;;
45728;SDS011;31439;53.512;10.206;2023-03-01T14:30:55;7.53;;;5.05;;
45728;SDS011;31439;53.512;10.206;2023-03-01T14:33:30;7.00;;;4.57;;
45728;SDS011;31439;53.512;10.206;2023-03-01T14:41:11;6.18;;;3.13;;
45728;SDS011;31439;53.512;10.206;2023-03-01T14:43:41;7.35;;;4.10;;
45728;SDS011;31439;53.512;10.206;2023-03-01T14:48:53;7.82;;;4.80;;
45728;SDS011;31439;53.512;10.206;2023-03-01T14:51:23;6.57;;;4.50;;
45728;SDS011;31439;53.512;10.206;2023-03-01T14:53:49;8.82;;;4.97;;
45728;SDS011;31439;53.512;10.206;2023-03-01T14:56:16;6.97;;;4.25;;
45728;SDS011;31439;53.512;10.206;2023-03-01T14:58:45;5.97;;;4.63;;
45728;SDS011;31439;53.512;10.206;2023-03-01T15:01:15;7.78;;;4.50;;
45728;SDS011;31439;53.512;10.206;2023-03-01T15:03:42;7.18;;;5.18;;
45728;SDS011;31439;53.512;10.206;2023-03-01T15:06:11;7.88;;;5.32;;
45728;SDS011;31439;53.512;10.206;2023-03-01T15:08:43;8.27;;;5.50;;
45728;SDS011;31439;53.512;10.206;2023-03-01T15:11:27;7.85;;;5.30;;
45728;SDS011;31439;53.512;10.206;2023-03-01T15:13:56;7.35;;;4.65;;
45728;SDS011;31439;53.512;10.206;2023-03-01T15:19:00;6.63;;;4.47;;
45728;SDS011;31439;53.512;10.206;2023-03-01T15:24:06;6.22;;;4.18;;
45728;SDS011;31439;53.512;10.206;2023-03-01T15:26:45;10.95;;;4.60;;
45728;SDS011;31439;53.512;10.206;2023-03-01T15:29:19;5.78;;;4.18;;
45728;SDS011;31439;53.512;10.206;2023-03-01T15:34:39;5.78;;;4.00;;
45728;SDS011;31439;53.512;10.206;2023-03-01T15:37:05;7.13;;;4.25;;
45728;SDS011;31439;53.512;10.206;2023-03-01T15:39:52;5.70;;;3.90;;
45728;SDS011;31439;53.512;10.206;2023-03-01T15:47:46;7.30;;;4.22;;
45728;SDS011;31439;53.512;10.206;2023-03-01T15:52:53;6.75;;;4.55;;
45728;SDS011;31439;53.512;10.206;2023-03-01T15:55:26;5.13;;;3.40;;
45728;SDS011;31439;53.512;10.206;2023-03-01T16:00:39;5.70;;;3.80;;
45728;SDS011;31439;53.512;10.206;2023-03-01T16:03:05;4.88;;;3.20;;
45728;SDS011;31439;53.512;10.206;2023-03-01T16:05:34;8.85;;;3.55;;
45728;SDS011;31439;53.512;10.206;2023-03-01T16:08:01;8.38;;;4.32;;
45728;SDS011;31439;53.512;10.206;2023-03-01T16:10:27;6.40;;;4.47;;
45728;SDS011;31439;53.512;10.206;2023-03-01T16:12:53;7.18;;;4.55;;
45728;SDS011;31439;53.512;10.206;2023-03-01T16:15:23;8.50;;;5.45;;
45728;SDS011;31439;53.512;10.206;2023-03-01T16:17:55;8.57;;;5.43;;
45728;SDS011;31439;53.512;10.206;2023-03-01T16:20:23;7.97;;;5.32;;
45728;SDS011;31439;53.512;10.206;2023-03-01T16:22:49;10.25;;;5.88;;
45728;SDS011;31439;53.512;10.206;2023-03-01T16:25:16;10.13;;;6.55;;
45728;SDS011;31439;53.512;10.206;2023-03-01T16:27:43;12.50;;;5.88;;
45728;SDS011;31439;53.512;10.206;2023-03-01T16:30:10;10.48;;;6.20;;
45728;SDS011;31439;53.512;10.206;2023-03-01T16:32:38;9.57;;;5.68;;
45728;SDS011;31439;53.512;10.206;2023-03-01T16:35:08;7.88;;;5.50;;
45728;SDS011;31439;53.512;10.206;2023-03-01T16:37:36;9.10;;;5.45;;
45728;SDS011;31439;53.512;10.206;2023-03-01T16:40:03;10.77;;;6.03;;
45728;SDS011;31439;53.512;10.206;2023-03-01T16:42:34;9.88;;;5.63;;
45728;SDS011;31439;53.512;10.206;2023-03-01T16:45:00;10.45;;;5.95;;
45728;SDS011;31439;53.512;10.206;2023-03-01T16:47:26;10.55;;;6.30;;
45728;SDS011;31439;53.512;10.206;2023-03-01T16:49:53;11.23;;;6.20;;
45728;SDS011;31439;53.512;10.206;2023-03-01T16:52:19;9.20;;;5.57;;
45728;SDS011;31439;53.512;10.206;2023-03-01T16:54:45;9.80;;;5.25;;
45728;SDS011;31439;53.512;10.206;2023-03-01T16:57:11;9.65;;;5.32;;
45728;SDS011;31439;53.512;10.206;2023-03-01T16:59:37;8.82;;;5.43;;
45728;SDS011;31439;53.512;10.206;2023-03-01T17:02:03;8.30;;;5.72;;
45728;SDS011;31439;53.512;10.206;2023-03-01T17:04:30;13.05;;;6.25;;